Time;durP1;ratioP1;P1;durP2;ratioP2;P2;SDS_P1;SDS_P2;PMS_P1;PMS_P2;Temp;Humidity;BMP_temperature;BMP_pressure;BME280_temperature;BME280_humidity;BME280_pressure;Samples;Min_cycle;Max_cycle;Signal;HPM_P1;HPM_P2
2023/11/08 00:02:40;;;;;;;24.10;15.10;;;;;;;7.63;78.19;99798.13;130599;1262;106200;-78
2023/11/08 00:05:47;;;;;;;24.00;15.30;;;;;;;7.66;78.20;99793.40;130582;1262;107273;-77
2023/11/08 00:08:53;;;;;;;24.70;14.70;;;;;;;7.69;78.18;99790.38;130556;1270;108499;-78
2023/11/08 00:11:58;;;;;;;25.40;14.60;;;;;;;7.70;78.21;99788.06;130540;1258;106407;-77
2023/11/08 00:15:08;;;;;;;21.30;13.10;;;;;;;7.71;78.34;99783.95;130531;1270;108474;-77
2023/11/08 00:18:13;;;;;;;23.10;12.70;;;;;;;7.73;78.25;99782.55;130542;1260;108729;-77
2023/11/08 00:21:19;;;;;;;22.50;13.80;;;;;;;7.77;78.30;99781.45;130564;1273;107813;-77
2023/11/08 00:24:25;;;;;;;24.20;15.50;;;;;;;7.82;78.45;99779.36;130605;1257;107670;-77
2023/11/08 00:27:30;;;;;;;25.50;15.00;;;;;;;7.86;78.46;99772.73;130707;1260;106877;-78
2023/11/08 00:30:36;;;;;;;24.30;14.50;;;;;;;7.91;78.49;99777.40;130618;1261;108889;-78
2023/11/08 00:33:41;;;;;;;27.60;14.60;;;;;;;7.96;78.28;99777.19;130633;1270;106425;-78
2023/11/08 00:36:49;;;;;;;23.20;14.10;;;;;;;7.97;78.53;99775.27;130445;1264;108698;-77
2023/11/08 00:39:54;;;;;;;22.50;13.70;;;;;;;7.98;78.54;99774.99;130582;1261;107135;-77
2023/11/08 00:43:00;;;;;;;22.70;14.30;;;;;;;7.98;78.67;99775.32;130577;1261;107777;-77
2023/11/08 00:46:07;;;;;;;23.40;13.70;;;;;;;7.96;78.72;99769.86;130536;1258;108241;-77
2023/11/08 00:49:13;;;;;;;23.00;12.90;;;;;;;7.96;78.88;99769.89;130640;1270;107027;-77
2023/11/08 00:52:21;;;;;;;22.80;13.70;;;;;;;8.00;78.81;99768.47;130645;1257;106996;-78
2023/11/08 00:55:26;;;;;;;24.90;14.30;;;;;;;8.06;78.85;99766.05;130696;1257;105991;-77
2023/11/08 00:58:32;;;;;;;25.80;14.10;;;;;;;8.11;78.95;99762.55;130627;1260;106387;-77
2023/11/08 01:01:38;;;;;;;24.30;14.50;;;;;;;8.14;78.85;99758.41;130624;1257;107678;-77
2023/11/08 01:04:43;;;;;;;23.20;14.80;;;;;;;8.16;78.96;99752.70;130687;1260;108675;-77
2023/11/08 01:07:49;;;;;;;23.10;13.90;;;;;;;8.17;78.97;99752.25;130608;1257;107782;-77
2023/11/08 01:10:55;;;;;;;24.50;14.30;;;;;;;8.16;78.89;99750.08;130633;1270;106567;-77
2023/11/08 01:14:01;;;;;;;23.20;14.10;;;;;;;8.12;79.00;99742.80;130529;1261;106588;-77
2023/11/08 01:17:07;;;;;;;21.10;12.90;;;;;;;8.05;78.79;99749.56;130575;1260;107122;-77
2023/11/08 01:20:14;;;;;;;19.60;12.00;;;;;;;7.98;78.92;99741.19;130468;1261;109474;-77
2023/11/08 01:23:19;;;;;;;23.50;13.60;;;;;;;7.94;78.94;99738.58;130674;1260;106538;-77
2023/11/08 01:26:25;;;;;;;23.90;15.30;;;;;;;7.91;78.98;99734.80;130527;1267;107283;-78
2023/11/08 01:29:32;;;;;;;27.90;15.00;;;;;;;7.87;79.02;99736.02;130626;1261;107780;-78
2023/11/08 01:32:38;;;;;;;24.90;14.00;;;;;;;7.83;78.90;99744.14;130647;1257;107710;-77
2023/11/08 01:35:43;;;;;;;24.20;14.40;;;;;;;7.78;78.89;99743.92;130557;1260;107735;-77
2023/11/08 01:38:49;;;;;;;23.70;14.60;;;;;;;7.74;79.01;99745.73;130542;1264;107698;-78
2023/11/08 01:41:55;;;;;;;23.00;14.10;;;;;;;7.71;78.99;99739.85;130651;1261;107632;-77
2023/11/08 01:45:01;;;;;;;22.20;14.00;;;;;;;7.66;79.12;99739.42;130541;1260;106881;-77
2023/11/08 01:48:08;;;;;;;22.50;14.20;;;;;;;7.62;79.29;99737.20;130564;1260;105685;-77
2023/11/08 01:51:15;;;;;;;20.60;12.00;;;;;;;7.56;79.29;99737.56;130549;1261;107590;-77
2023/11/08 01:54:21;;;;;;;19.60;11.50;;;;;;;7.53;79.28;99739.46;130620;1260;107551;-77
2023/11/08 01:57:29;;;;;;;26.20;12.90;;;;;;;7.53;79.29;99737.00;130627;1268;108786;-77
2023/11/08 02:00:36;;;;;;;25.00;13.30;;;;;;;7.54;79.48;99726.39;130600;1262;106283;-77
2023/11/08 02:03:43;;;;;;;23.10;13.80;;;;;;;7.57;79.54;99729.56;130615;1260;106572;-77
2023/11/08 02:06:49;;;;;;;24.90;13.30;;;;;;;7.56;79.43;99730.15;130457;1271;108698;-77
2023/11/08 02:09:54;;;;;;;25.00;14.40;;;;;;;7.54;79.28;99731.80;130554;1261;108658;-78
2023/11/08 02:13:02;;;;;;;27.20;14.50;;;;;;;7.49;79.40;99729.41;130514;1260;106732;-78
2023/11/08 02:16:08;;;;;;;20.80;13.20;;;;;;;7.43;79.30;99731.73;130440;1263;106831;-77
2023/11/08 02:19:14;;;;;;;22.30;13.80;;;;;;;7.36;79.37;99739.85;130530;1260;107780;-78
2023/11/08 02:22:19;;;;;;;22.60;12.40;;;;;;;7.31;79.64;99742.63;130346;1257;108034;-78
2023/11/08 02:25:26;;;;;;;21.20;11.70;;;;;;;7.25;79.49;99735.89;130586;1270;109562;-77
2023/11/08 02:28:31;;;;;;;21.70;12.40;;;;;;;7.22;79.55;99732.82;130605;1268;106875;-77
2023/11/08 02:31:37;;;;;;;22.30;12.70;;;;;;;7.19;79.77;99731.00;130581;1258;106758;-77
2023/11/08 02:34:43;;;;;;;21.00;13.00;;;;;;;7.19;79.67;99729.23;130653;1260;108865;-78
2023/11/08 02:37:49;;;;;;;21.10;12.90;;;;;;;7.21;79.65;99731.02;130418;1262;106748;-77
2023/11/08 02:40:56;;;;;;;21.20;12.30;;;;;;;7.22;79.87;99734.83;130343;1261;108866;-78
2023/11/08 02:44:02;;;;;;;18.60;12.30;;;;;;;7.20;79.75;99735.33;130476;1258;108381;-78
2023/11/08 02:47:08;;;;;;;19.00;12.30;;;;;;;7.18;79.86;99734.23;130524;1260;107795;-78
2023/11/08 02:50:14;;;;;;;19.20;10.40;;;;;;;7.13;79.90;99737.55;130477;1260;107767;-79
2023/11/08 02:53:20;;;;;;;19.60;11.40;;;;;;;7.10;79.95;99740.38;130661;1259;108471;-79
2023/11/08 02:56:26;;;;;;;20.10;11.50;;;;;;;7.10;80.08;99740.17;130645;1270;107205;-79
2023/11/08 02:59:31;;;;;;;20.50;12.40;;;;;;;7.11;80.04;99743.64;130570;1260;106645;-79
2023/11/08 03:02:39;;;;;;;22.90;11.90;;;;;;;7.12;80.25;99745.06;130575;1256;106021;-78
2023/11/08 03:05:45;;;;;;;23.70;13.20;;;;;;;7.17;80.34;99746.24;130639;1260;107784;-78
2023/11/08 03:08:53;;;;;;;20.10;12.10;;;;;;;7.19;80.48;99754.35;130677;1261;105787;-78
2023/11/08 03:11:59;;;;;;;18.70;12.10;;;;;;;7.19;80.35;99753.95;131073;1256;107446;-78
2023/11/08 03:15:06;;;;;;;19.00;11.80;;;;;;;7.17;80.35;99751.50;130538;1264;107775;-77
2023/11/08 03:18:12;;;;;;;19.30;12.20;;;;;;;7.13;80.25;99743.18;130505;1264;107521;-78
2023/11/08 03:21:17;;;;;;;16.10;9.70;;;;;;;7.09;80.52;99746.08;130537;1262;108568;-78
2023/11/08 03:24:23;;;;;;;16.50;9.60;;;;;;;7.02;80.28;99750.61;130586;1257;107776;-79
2023/11/08 03:27:29;;;;;;;17.90;11.20;;;;;;;6.98;80.13;99751.13;130601;1270;106861;-78
2023/11/08 03:30:50;;;;;;;28.00;11.00;;;;;;;6.95;79.99;99756.73;130802;1260;106591;-75
2023/11/08 03:33:58;;;;;;;22.10;11.30;;;;;;;6.91;80.09;99760.69;130746;1261;106450;-74
2023/11/08 03:37:04;;;;;;;19.30;11.40;;;;;;;6.88;80.22;99763.00;130558;1257;107108;-75
2023/11/08 03:40:12;;;;;;;20.70;10.60;;;;;;;6.86;80.38;99760.93;130624;1261;107940;-75
2023/11/08 03:43:18;;;;;;;21.50;10.80;;;;;;;6.82;80.13;99759.38;130589;1260;107623;-75
2023/11/08 03:46:24;;;;;;;17.90;10.80;;;;;;;6.75;80.08;99754.36;130947;1255;106825;-75
2023/11/08 03:49:34;;;;;;;20.00;11.50;;;;;;;6.69;79.82;99754.67;130608;1260;107706;-74
2023/11/08 03:52:39;;;;;;;16.70;9.80;;;;;;;6.64;80.32;99747.52;130655;1257;106920;-74
2023/11/08 03:55:45;;;;;;;27.70;14.70;;;;;;;6.58;80.53;99748.84;130558;1260;107164;-74
2023/11/08 03:58:51;;;;;;;26.20;15.70;;;;;;;6.53;80.48;99746.61;130588;1260;106587;-74
2023/11/08 04:01:57;;;;;;;18.60;10.70;;;;;;;6.51;80.13;99743.63;130507;1260;107711;-74
2023/11/08 04:05:02;;;;;;;19.50;11.10;;;;;;;6.51;80.44;99746.64;130600;1255;106523;-74
2023/11/08 04:08:08;;;;;;;19.20;11.00;;;;;;;6.51;80.25;99743.61;130749;1257;107927;-74
2023/11/08 04:11:14;;;;;;;18.30;11.40;;;;;;;6.51;80.19;99749.96;130528;1260;106544;-76
2023/11/08 04:14:19;;;;;;;14.80;10.20;;;;;;;6.50;80.35;99750.63;130526;1261;107223;-75
2023/11/08 04:17:25;;;;;;;18.00;10.90;;;;;;;6.49;80.58;99757.36;130514;1257;107732;-75
2023/11/08 04:20:30;;;;;;;17.90;10.90;;;;;;;6.50;80.63;99753.23;130543;1261;106552;-75
2023/11/08 04:23:36;;;;;;;17.00;10.00;;;;;;;6.50;80.82;99755.93;130544;1262;107063;-74
2023/11/08 04:26:42;;;;;;;18.60;9.60;;;;;;;6.49;80.57;99751.36;130568;1261;108726;-75
2023/11/08 04:29:49;;;;;;;18.20;10.30;;;;;;;6.50;80.54;99752.02;130535;1262;108792;-75
2023/11/08 04:32:54;;;;;;;16.00;10.10;;;;;;;6.52;80.89;99757.55;130552;1260;107586;-74
2023/11/08 04:36:00;;;;;;;17.00;10.40;;;;;;;6.52;80.83;99759.91;130523;1261;108725;-74
2023/11/08 04:39:07;;;;;;;20.20;12.60;;;;;;;6.56;80.93;99766.64;130579;1260;107062;-75
2023/11/08 04:42:13;;;;;;;18.80;10.80;;;;;;;6.59;80.75;99765.13;130505;1261;107006;-75
2023/11/08 04:45:19;;;;;;;18.40;11.70;;;;;;;6.63;81.14;99770.77;130542;1257;106876;-75
2023/11/08 04:48:24;;;;;;;18.30;10.70;;;;;;;6.68;81.10;99769.77;130558;1256;106686;-75
2023/11/08 04:51:30;;;;;;;21.70;12.80;;;;;;;6.73;81.31;99769.69;130561;1260;108203;-75
2023/11/08 04:54:35;;;;;;;17.50;10.00;;;;;;;6.79;81.40;99771.86;130558;1271;107117;-74
2023/11/08 04:57:41;;;;;;;18.30;11.50;;;;;;;6.87;81.29;99771.43;130706;1260;108456;-75
2023/11/08 05:00:47;;;;;;;24.60;14.30;;;;;;;6.95;81.53;99770.16;130604;1255;108117;-75
2023/11/08 05:03:53;;;;;;;24.70;15.20;;;;;;;7.03;81.58;99763.62;130664;1260;105685;-74
2023/11/08 05:06:58;;;;;;;43.10;24.50;;;;;;;7.09;81.76;99758.63;130651;1262;106673;-76
2023/11/08 05:10:07;;;;;;;25.60;17.80;;;;;;;7.16;81.63;99752.18;130586;1257;109147;-74
2023/11/08 05:13:15;;;;;;;22.30;13.60;;;;;;;7.23;82.30;99762.40;130556;1261;107047;-77
2023/11/08 05:16:24;;;;;;;206.20;91.00;;;;;;;7.29;82.36;99764.04;130650;1260;107321;-75
2023/11/08 05:19:29;;;;;;;30.40;16.60;;;;;;;7.34;82.49;99764.11;130472;1256;108142;-75
2023/11/08 05:22:39;;;;;;;16.00;9.70;;;;;;;7.39;82.45;99761.08;130591;1260;106490;-75
2023/11/08 05:25:44;;;;;;;15.70;9.50;;;;;;;7.48;82.65;99758.34;130659;1261;106901;-73
2023/11/08 05:28:50;;;;;;;25.40;17.00;;;;;;;7.54;82.48;99757.25;130645;1255;107153;-74
2023/11/08 05:31:56;;;;;;;20.00;12.60;;;;;;;7.58;82.55;99764.50;130611;1257;107743;-76
2023/11/08 05:35:02;;;;;;;17.10;10.10;;;;;;;7.61;82.74;99771.05;130622;1260;106585;-75
2023/11/08 05:38:09;;;;;;;13.50;8.70;;;;;;;7.64;82.83;99774.70;130879;1260;107697;-74
2023/11/08 05:41:20;;;;;;;12.20;7.10;;;;;;;7.64;82.88;99778.56;130631;1261;108386;-75
2023/11/08 05:44:26;;;;;;;11.10;7.50;;;;;;;7.67;82.98;99782.21;130847;1258;106500;-75
2023/11/08 05:47:31;;;;;;;13.10;6.80;;;;;;;7.71;83.07;99786.44;130593;1260;108628;-75
2023/11/08 05:50:37;;;;;;;10.40;7.00;;;;;;;7.75;83.03;99789.36;130758;1256;107613;-75
2023/11/08 05:53:42;;;;;;;13.50;7.60;;;;;;;7.80;83.06;99791.74;130515;1260;107520;-75
2023/11/08 05:56:48;;;;;;;13.10;7.60;;;;;;;7.83;83.07;99792.58;130650;1260;106826;-74
2023/11/08 05:59:54;;;;;;;22.00;10.70;;;;;;;7.84;82.97;99793.82;130517;1260;108364;-74
2023/11/08 06:02:59;;;;;;;16.40;8.80;;;;;;;7.84;83.07;99792.63;130609;1260;107612;-74
2023/11/08 06:06:06;;;;;;;18.50;8.50;;;;;;;7.81;83.15;99792.03;130582;1256;106948;-74
2023/11/08 06:09:14;;;;;;;23.30;8.90;;;;;;;7.78;83.15;99794.73;130691;1260;107799;-75
2023/11/08 06:12:20;;;;;;;80.90;19.70;;;;;;;7.79;83.40;99794.82;130657;1256;106584;-74
2023/11/08 06:15:25;;;;;;;31.00;11.60;;;;;;;7.83;83.24;99796.77;130589;1256;106854;-73
2023/11/08 06:18:31;;;;;;;63.20;19.90;;;;;;;7.89;83.23;99799.77;130620;1260;107767;-74
2023/11/08 06:21:37;;;;;;;101.50;32.30;;;;;;;7.92;83.41;99802.85;130612;1263;108545;-73
2023/11/08 06:24:43;;;;;;;37.00;16.90;;;;;;;7.96;83.38;99805.48;130586;1261;107783;-73
2023/11/08 06:27:49;;;;;;;35.60;17.30;;;;;;;7.99;83.34;99808.89;130563;1257;108743;-73
2023/11/08 06:30:55;;;;;;;91.90;45.80;;;;;;;8.01;83.45;99810.16;130532;1260;107666;-73
2023/11/08 06:34:00;;;;;;;52.10;26.90;;;;;;;8.03;83.61;99811.86;130581;1260;106474;-75
2023/11/08 06:37:06;;;;;;;47.20;26.50;;;;;;;8.08;83.71;99811.94;130558;1256;108153;-75
2023/11/08 06:40:13;;;;;;;28.50;16.40;;;;;;;8.15;83.67;99810.56;130597;1260;107752;-75
2023/11/08 06:43:19;;;;;;;19.70;12.00;;;;;;;8.22;83.74;99810.17;130577;1256;108655;-75
2023/11/08 06:46:24;;;;;;;15.00;9.20;;;;;;;8.28;83.79;99813.50;130583;1256;107529;-73
2023/11/08 06:49:30;;;;;;;19.90;12.40;;;;;;;8.33;83.72;99813.27;130565;1260;106533;-73
2023/11/08 06:52:37;;;;;;;16.80;9.50;;;;;;;8.36;83.68;99816.67;130580;1260;106368;-73
2023/11/08 06:55:42;;;;;;;15.10;8.50;;;;;;;8.37;83.71;99822.24;130588;1257;108623;-73
2023/11/08 06:58:48;;;;;;;19.20;9.70;;;;;;;8.40;83.98;99820.02;130463;1261;106889;-75
2023/11/08 07:01:53;;;;;;;270.60;88.10;;;;;;;8.44;83.89;99823.32;130569;1261;107757;-75
2023/11/08 07:04:59;;;;;;;66.50;30.70;;;;;;;8.52;83.94;99828.48;130580;1256;107121;-74
2023/11/08 07:08:05;;;;;;;22.80;12.70;;;;;;;8.59;83.87;99831.45;130608;1256;106572;-74
2023/11/08 07:11:11;;;;;;;17.40;11.60;;;;;;;8.66;83.92;99831.11;130607;1260;108315;-73
2023/11/08 07:14:17;;;;;;;14.10;8.80;;;;;;;8.72;83.91;99835.39;130575;1262;107841;-74
2023/11/08 07:17:22;;;;;;;11.60;7.30;;;;;;;8.76;83.80;99839.02;130570;1260;107660;-74
2023/11/08 07:20:28;;;;;;;9.80;6.50;;;;;;;8.79;83.88;99843.68;130503;1262;106515;-74
2023/11/08 07:23:34;;;;;;;11.90;6.30;;;;;;;8.83;84.13;99842.39;130648;1256;107712;-76
2023/11/08 07:26:39;;;;;;;11.60;6.20;;;;;;;8.89;83.81;99841.87;130550;1261;107544;-76
2023/11/08 07:29:45;;;;;;;11.30;6.30;;;;;;;8.95;84.05;99843.30;130600;1260;106824;-76
2023/11/08 07:32:52;;;;;;;10.80;6.90;;;;;;;9.04;83.92;99843.38;130588;1256;107502;-76
2023/11/08 07:35:58;;;;;;;9.80;6.70;;;;;;;9.10;83.95;99847.18;130580;1256;108264;-76
2023/11/08 07:39:06;;;;;;;10.50;7.10;;;;;;;9.15;84.00;99849.35;130617;1256;107759;-73
2023/11/08 07:42:12;;;;;;;12.80;7.20;;;;;;;9.19;83.97;99852.34;130575;1260;109096;-73
2023/11/08 07:45:18;;;;;;;11.30;7.00;;;;;;;9.22;83.93;99855.90;130525;1261;106917;-73
2023/11/08 07:48:25;;;;;;;11.40;6.20;;;;;;;9.27;84.00;99858.30;130447;1261;106698;-73
2023/11/08 07:51:31;;;;;;;11.60;7.50;;;;;;;9.32;83.93;99852.23;130565;1261;107784;-76
2023/11/08 07:54:37;;;;;;;9.90;6.80;;;;;;;9.40;84.23;99857.70;130589;1256;106195;-76
2023/11/08 07:57:43;;;;;;;10.00;6.50;;;;;;;9.49;83.91;99857.46;130613;1260;107924;-76
2023/11/08 08:00:48;;;;;;;10.20;6.90;;;;;;;9.56;84.10;99853.02;130643;1260;106980;-76
2023/11/08 08:03:54;;;;;;;15.30;6.40;;;;;;;9.62;83.93;99851.55;130568;1257;107096;-76
2023/11/08 08:07:01;;;;;;;10.00;6.50;;;;;;;9.67;83.87;99850.30;130616;1255;107837;-77
2023/11/08 08:10:09;;;;;;;9.70;5.90;;;;;;;9.72;83.63;99849.65;130514;1260;106659;-76
2023/11/08 08:13:15;;;;;;;10.80;5.20;;;;;;;9.74;83.56;99853.30;130487;1257;107726;-76
2023/11/08 08:16:21;;;;;;;8.50;5.80;;;;;;;9.81;83.39;99854.20;130613;1260;106850;-76
2023/11/08 08:19:29;;;;;;;8.40;5.30;;;;;;;9.88;83.60;99856.73;130518;1260;108750;-76
2023/11/08 08:22:35;;;;;;;7.10;5.50;;;;;;;9.94;83.21;99856.26;130582;1260;108942;-76
2023/11/08 08:25:41;;;;;;;8.00;5.60;;;;;;;9.96;83.17;99851.08;130661;1260;106489;-74
2023/11/08 08:28:47;;;;;;;8.80;5.50;;;;;;;10.01;83.11;99857.67;130590;1260;108305;-74
2023/11/08 08:31:52;;;;;;;9.60;5.30;;;;;;;10.07;83.18;99852.44;130584;1260;105951;-74
2023/11/08 08:34:58;;;;;;;8.10;5.50;;;;;;;10.06;83.43;99861.02;130553;1260;108631;-74
2023/11/08 08:38:03;;;;;;;7.30;5.20;;;;;;;10.04;83.16;99861.66;130569;1261;106540;-75
2023/11/08 08:41:09;;;;;;;9.30;5.30;;;;;;;10.10;82.80;99861.75;130741;1257;106956;-73
2023/11/08 08:44:14;;;;;;;8.20;4.90;;;;;;;10.12;82.73;99859.33;130642;1256;106563;-75
2023/11/08 08:47:20;;;;;;;7.50;4.80;;;;;;;10.16;82.94;99858.21;130620;1256;107748;-76
2023/11/08 08:50:26;;;;;;;7.40;4.50;;;;;;;10.20;82.86;99857.42;130648;1257;106662;-74
2023/11/08 08:53:31;;;;;;;6.50;5.20;;;;;;;10.26;82.77;99857.71;130488;1271;106704;-74
2023/11/08 08:56:37;;;;;;;6.90;4.40;;;;;;;10.30;82.83;99860.17;130579;1260;108446;-74
2023/11/08 08:59:43;;;;;;;7.30;5.10;;;;;;;10.35;82.63;99855.91;130586;1261;106530;-74
2023/11/08 09:02:49;;;;;;;5.70;4.50;;;;;;;10.35;82.29;99859.31;130555;1256;107249;-73
2023/11/08 09:05:55;;;;;;;7.10;4.30;;;;;;;10.27;82.10;99862.63;130571;1258;108660;-74
2023/11/08 09:09:00;;;;;;;4.80;3.80;;;;;;;10.20;81.94;99868.98;130752;1260;108526;-74
2023/11/08 09:12:07;;;;;;;5.00;3.90;;;;;;;10.22;82.69;99872.00;130691;1261;108472;-74
2023/11/08 09:15:14;;;;;;;5.70;3.60;;;;;;;10.33;82.33;99871.96;130549;1256;108754;-74
2023/11/08 09:18:20;;;;;;;4.90;3.70;;;;;;;10.47;81.74;99869.05;130588;1260;107711;-74
2023/11/08 09:21:25;;;;;;;8.30;4.60;;;;;;;10.49;81.02;99871.58;130679;1255;107682;-74
2023/11/08 09:24:32;;;;;;;5.40;4.20;;;;;;;10.51;81.41;99870.36;130651;1261;106435;-74
2023/11/08 09:27:38;;;;;;;5.30;3.90;;;;;;;10.66;81.65;99870.44;130621;1262;108701;-75
2023/11/08 09:30:44;;;;;;;5.50;3.90;;;;;;;10.86;81.63;99866.54;130579;1260;106503;-74
2023/11/08 09:33:49;;;;;;;5.40;4.00;;;;;;;10.98;81.22;99869.48;130596;1261;107397;-74
2023/11/08 09:36:56;;;;;;;4.80;3.50;;;;;;;11.04;80.47;99868.94;130537;1261;106961;-77
2023/11/08 09:40:04;;;;;;;6.10;3.60;;;;;;;11.09;80.95;99867.45;130539;1260;107665;-74
2023/11/08 09:43:10;;;;;;;4.70;3.70;;;;;;;11.17;80.76;99866.94;130612;1256;106454;-75
2023/11/08 09:46:18;;;;;;;5.60;3.80;;;;;;;11.24;80.55;99860.56;130589;1261;107045;-75
2023/11/08 09:49:25;;;;;;;5.30;3.20;;;;;;;11.29;80.43;99863.90;130616;1256;107777;-73
2023/11/08 09:52:31;;;;;;;4.90;3.00;;;;;;;11.23;79.56;99862.89;130602;1260;108677;-75
2023/11/08 09:55:37;;;;;;;4.40;2.90;;;;;;;11.23;79.51;99863.30;130693;1260;108357;-76
2023/11/08 09:58:46;;;;;;;4.10;2.80;;;;;;;11.21;78.25;99863.34;130603;1256;107685;-76
2023/11/08 10:01:54;;;;;;;5.00;3.20;;;;;;;11.14;79.40;99855.83;130617;1258;106879;-76
2023/11/08 10:05:03;;;;;;;5.50;2.80;;;;;;;11.03;78.51;99859.59;130613;1261;108527;-76
2023/11/08 10:08:13;;;;;;;6.90;3.20;;;;;;;10.99;79.54;99862.09;130541;1256;108583;-75
2023/11/08 10:11:20;;;;;;;3.60;2.60;;;;;;;11.08;80.03;99855.85;130676;1256;108734;-75
2023/11/08 10:14:35;;;;;;;4.20;2.60;;;;;;;11.22;79.80;99855.59;130605;1257;107530;-76
2023/11/08 10:17:42;;;;;;;4.20;2.90;;;;;;;11.30;79.14;99852.52;130714;1261;108100;-75
2023/11/08 10:21:04;;;;;;;4.60;2.80;;;;;;;11.36;79.02;99851.34;130639;1260;108773;-76
2023/11/08 10:24:15;;;;;;;3.60;2.70;;;;;;;11.42;79.33;99847.27;130607;1256;106941;-75
2023/11/08 10:27:20;;;;;;;4.80;2.90;;;;;;;11.53;79.37;99841.47;130662;1260;107773;-75
2023/11/08 10:30:26;;;;;;;6.80;4.80;;;;;;;11.58;78.52;99842.09;130543;1260;108359;-75
2023/11/08 10:33:32;;;;;;;4.40;3.20;;;;;;;11.53;78.41;99839.21;130708;1258;107957;-74
2023/11/08 10:36:38;;;;;;;4.70;3.30;;;;;;;11.39;78.10;99838.79;130620;1257;108205;-75
2023/11/08 10:39:44;;;;;;;4.30;3.10;;;;;;;11.31;78.17;99838.12;130661;1257;107962;-75
2023/11/08 10:42:55;;;;;;;9.40;6.50;;;;;;;11.29;78.27;99843.77;130623;1261;107865;-75
2023/11/08 10:46:00;;;;;;;6.40;4.40;;;;;;;11.28;78.64;99841.13;130550;1261;177106;-75
2023/11/08 10:49:07;;;;;;;4.30;3.50;;;;;;;11.39;78.17;99836.82;130624;1260;108452;-75
2023/11/08 10:52:13;;;;;;;4.50;3.80;;;;;;;11.49;77.77;99832.66;130674;1260;106797;-75
2023/11/08 10:55:25;;;;;;;7.10;5.30;;;;;;;11.59;77.91;99835.83;130667;1260;106705;-75
2023/11/08 10:58:37;;;;;;;4.50;3.80;;;;;;;11.58;76.06;99836.83;130581;1256;107120;-76
2023/11/08 11:01:45;;;;;;;5.90;3.70;;;;;;;11.55;77.04;99836.30;130502;1260;108518;-73
2023/11/08 11:04:54;;;;;;;3.80;3.30;;;;;;;11.61;76.98;99830.80;130605;1260;107297;-73
2023/11/08 11:08:04;;;;;;;8.10;4.60;;;;;;;11.66;77.06;99834.63;130546;1261;107849;-73
2023/11/08 11:11:10;;;;;;;3.40;3.10;;;;;;;11.71;76.86;99832.01;130623;1260;108675;-73
2023/11/08 11:14:28;;;;;;;4.70;3.30;;;;;;;11.64;76.37;99832.27;130620;1260;107699;-74
2023/11/08 11:17:38;;;;;;;4.70;3.20;;;;;;;11.68;77.11;99827.39;130667;1260;107484;-73
2023/11/08 11:20:49;;;;;;;3.70;3.10;;;;;;;11.72;76.69;99825.47;130553;1261;108770;-74
2023/11/08 11:23:54;;;;;;;5.70;3.30;;;;;;;11.73;76.55;99827.87;130663;1261;106895;-73
2023/11/08 11:27:01;;;;;;;3.60;3.30;;;;;;;11.72;76.53;99827.58;130670;1260;108644;-73
2023/11/08 11:30:27;;;;;;;5.10;3.40;;;;;;;11.73;76.72;99830.02;130552;1260;107770;-73
2023/11/08 11:33:35;;;;;;;4.60;3.50;;;;;;;11.72;75.70;99828.38;130593;1260;108574;-73
2023/11/08 11:37:05;;;;;;;4.20;3.70;;;;;;;11.71;76.23;99821.83;130588;1261;107729;-73
2023/11/08 11:40:15;;;;;;;4.00;3.20;;;;;;;11.73;76.23;99823.73;130662;1260;107607;-73
2023/11/08 11:43:41;;;;;;;5.20;3.20;;;;;;;11.73;75.74;99824.44;130587;1260;107516;-75
2023/11/08 11:46:52;;;;;;;4.10;3.40;;;;;;;11.66;75.33;99822.58;130568;1260;107687;-73
2023/11/08 11:50:02;;;;;;;4.20;3.30;;;;;;;11.55;75.00;99822.73;130737;1257;108448;-73
2023/11/08 11:53:08;;;;;;;4.30;3.30;;;;;;;11.42;74.72;99828.44;130590;1257;106266;-72
2023/11/08 11:56:13;;;;;;;4.60;3.20;;;;;;;11.29;74.84;99825.23;130551;1256;107684;-73
2023/11/08 11:59:20;;;;;;;4.90;4.00;;;;;;;11.18;74.92;99827.14;130609;1256;107646;-73
2023/11/08 12:02:28;;;;;;;7.80;5.50;;;;;;;11.07;75.12;99827.95;130669;1260;107307;-73
2023/11/08 12:05:34;;;;;;;8.40;6.60;;;;;;;11.00;75.19;99831.71;130600;1263;108513;-73
2023/11/08 12:08:39;;;;;;;10.60;6.10;;;;;;;10.96;75.39;99834.65;130538;1262;108039;-73
2023/11/08 12:11:50;;;;;;;5.90;4.10;;;;;;;11.00;75.54;99829.81;130637;1256;107968;-73
2023/11/08 12:14:58;;;;;;;5.00;3.50;;;;;;;11.08;75.90;99828.75;130534;1261;107994;-74
2023/11/08 12:18:05;;;;;;;4.40;3.70;;;;;;;11.26;75.26;99827.38;130616;1257;107493;-73
2023/11/08 12:21:11;;;;;;;5.70;3.70;;;;;;;11.32;74.33;99830.27;130547;1262;107624;-73
2023/11/08 12:24:16;;;;;;;4.30;3.70;;;;;;;11.33;74.86;99827.84;130549;1261;108515;-74
2023/11/08 12:27:22;;;;;;;5.60;3.90;;;;;;;11.38;75.28;99830.64;130553;1261;107135;-73
2023/11/08 12:30:28;;;;;;;4.40;3.40;;;;;;;11.39;74.98;99833.41;130598;1261;107248;-73
2023/11/08 12:33:34;;;;;;;6.00;3.80;;;;;;;11.34;74.68;99831.61;130608;1260;106688;-73
2023/11/08 12:36:40;;;;;;;5.80;4.40;;;;;;;11.26;74.76;99833.39;130598;1262;107015;-73
2023/11/08 12:39:46;;;;;;;4.30;3.80;;;;;;;11.19;74.57;99832.65;130615;1262;107198;-73
2023/11/08 12:42:52;;;;;;;5.60;4.30;;;;;;;11.11;74.46;99834.02;130579;1260;107484;-73
2023/11/08 12:46:05;;;;;;;4.70;4.00;;;;;;;11.02;74.60;99835.69;130587;1260;107716;-73
2023/11/08 12:49:15;;;;;;;5.10;4.00;;;;;;;10.96;74.87;99833.92;130689;1262;107927;-73
2023/11/08 12:52:22;;;;;;;18.20;13.10;;;;;;;10.94;74.92;99834.20;130600;1256;106728;-75
2023/11/08 12:55:28;;;;;;;25.20;14.40;;;;;;;10.89;74.88;99831.14;130697;1262;108861;-73
2023/11/08 12:58:34;;;;;;;120.10;53.80;;;;;;;10.79;74.80;99834.91;130665;1260;107588;-75
2023/11/08 13:01:40;;;;;;;221.00;86.50;;;;;;;10.70;74.39;99839.13;130664;1256;108189;-72
2023/11/08 13:04:46;;;;;;;317.30;160.20;;;;;;;10.65;74.85;99843.40;130850;1260;107571;-72
2023/11/08 13:07:51;;;;;;;272.10;124.50;;;;;;;10.68;75.12;99844.45;130668;1260;108608;-73
2023/11/08 13:10:58;;;;;;;553.10;311.40;;;;;;;10.73;75.14;99844.27;130608;1256;107965;-73
2023/11/08 13:14:05;;;;;;;262.50;131.70;;;;;;;10.77;75.03;99843.27;130567;1262;106890;-73
2023/11/08 13:17:11;;;;;;;556.30;329.10;;;;;;;10.82;75.43;99838.17;130609;1262;106800;-73
2023/11/08 13:20:17;;;;;;;652.70;390.60;;;;;;;10.82;75.09;99834.42;130528;1255;108528;-75
2023/11/08 13:23:22;;;;;;;849.00;569.10;;;;;;;10.80;74.87;99832.88;130633;1257;106971;-75
2023/11/08 13:26:28;;;;;;;363.50;181.40;;;;;;;10.78;75.04;99835.01;130634;1257;108720;-73
2023/11/08 13:29:34;;;;;;;136.40;83.70;;;;;;;10.80;75.64;99839.58;130521;1262;107162;-73
2023/11/08 13:32:39;;;;;;;40.90;22.90;;;;;;;10.82;75.47;99838.68;130757;1256;105788;-73
2023/11/08 13:35:45;;;;;;;16.90;11.00;;;;;;;10.84;75.46;99840.21;130517;1262;107020;-74
2023/11/08 13:38:51;;;;;;;10.70;6.50;;;;;;;10.87;75.50;99843.79;130608;1271;108676;-73
2023/11/08 13:41:57;;;;;;;8.40;6.20;;;;;;;10.89;75.39;99844.84;130595;1261;107479;-73
2023/11/08 13:45:03;;;;;;;7.70;5.50;;;;;;;10.85;75.52;99843.64;130614;1260;108575;-73
2023/11/08 13:48:09;;;;;;;77.70;50.20;;;;;;;10.79;75.20;99846.27;130575;1262;108600;-75
2023/11/08 13:51:15;;;;;;;263.10;100.10;;;;;;;10.75;75.21;99847.07;130409;1264;106601;-73
2023/11/08 13:54:20;;;;;;;255.70;97.50;;;;;;;10.72;75.17;99848.08;130541;1260;106533;-73
2023/11/08 13:57:26;;;;;;;458.40;173.50;;;;;;;10.67;75.42;99850.96;130572;1262;108617;-72
2023/11/08 14:00:31;;;;;;;511.60;187.90;;;;;;;10.61;74.94;99851.77;130604;1256;106354;-73
2023/11/08 14:03:37;;;;;;;787.90;388.20;;;;;;;10.52;75.30;99853.66;130595;1262;107680;-74
2023/11/08 14:06:43;;;;;;;756.50;412.10;;;;;;;10.41;75.11;99853.14;130614;1268;106490;-73
2023/11/08 14:09:48;;;;;;;410.90;202.20;;;;;;;10.30;75.32;99855.18;130636;1262;106306;-73
2023/11/08 14:12:54;;;;;;;517.90;287.00;;;;;;;10.15;75.32;99857.02;130475;1256;107019;-73